Time;durP1;ratioP1;P1;durP2;ratioP2;P2;SDS_P1;SDS_P2;PMS_P1;PMS_P2;Temp;Humidity;BMP_temperature;BMP_pressure;BME280_temperature;BME280_humidity;BME280_pressure;Samples;Min_cycle;Max_cycle;Signal;HPM_P1;HPM_P2
2021/03/30 00:01:37;;;;;;;7.43;3.83;;;8.40;84.20;;;;;;5097958;28;20554;-66
2021/03/30 00:04:04;;;;;;;6.77;3.30;;;8.30;84.80;;;;;;5097444;28;20224;-65
2021/03/30 00:06:30;;;;;;;6.20;3.33;;;8.20;85.60;;;;;;5097371;28;20249;-65
2021/03/30 00:08:56;;;;;;;7.17;3.90;;;8.00;86.30;;;;;;5097105;28;20753;-66
2021/03/30 00:11:22;;;;;;;6.43;3.83;;;7.90;86.30;;;;;;5097514;28;20208;-66
2021/03/30 00:13:49;;;;;;;9.93;3.83;;;8.00;86.40;;;;;;5097399;28;20228;-66
2021/03/30 00:16:15;;;;;;;5.60;3.50;;;7.90;86.60;;;;;;5097065;28;20242;-66
2021/03/30 00:18:42;;;;;;;7.17;3.70;;;7.80;87.20;;;;;;5098397;28;20205;-65
2021/03/30 00:21:08;;;;;;;5.80;3.73;;;7.80;87.20;;;;;;5098437;28;20212;-65
2021/03/30 00:23:34;;;;;;;7.43;3.40;;;7.80;87.00;;;;;;5099331;28;20224;-65
2021/03/30 00:26:01;;;;;;;9.33;3.97;;;7.90;86.90;;;;;;5098886;28;20333;-65
2021/03/30 00:28:27;;;;;;;8.43;4.07;;;7.90;87.20;;;;;;5099131;28;20220;-65
2021/03/30 00:30:53;;;;;;;5.57;3.00;;;7.80;87.90;;;;;;5100117;28;20211;-65
2021/03/30 00:33:20;;;;;;;7.13;3.30;;;7.70;88.20;;;;;;5099867;28;20232;-66
2021/03/30 00:35:47;;;;;;;8.23;3.37;;;7.70;88.40;;;;;;5097536;28;20227;-65
2021/03/30 00:38:13;;;;;;;6.07;3.57;;;8.50;89.40;;;;;;5096284;28;20647;-65
2021/03/30 00:40:39;;;;;;;4.77;2.60;;;7.50;89.20;;;;;;5096293;28;20207;-65
2021/03/30 00:43:06;;;;;;;7.93;3.87;;;7.40;89.50;;;;;;5096703;28;20242;-65
2021/03/30 00:45:33;;;;;;;4.93;3.37;;;7.60;90.00;;;;;;5098067;28;20265;-65
2021/03/30 00:48:00;;;;;;;4.23;2.40;;;7.40;90.00;;;;;;5098489;28;20212;-65
2021/03/30 00:50:31;;;;;;;6.97;3.07;;;7.40;89.80;;;;;;5100079;28;20204;-65
2021/03/30 00:53:00;;;;;;;7.37;3.20;;;7.80;90.00;;;;;;5100052;28;20236;-66
2021/03/30 00:55:27;;;;;;;8.30;3.00;;;7.50;89.90;;;;;;5098489;28;20226;-65
2021/03/30 00:57:53;;;;;;;4.27;2.60;;;7.40;90.10;;;;;;5097673;28;20211;-65
2021/03/30 01:00:21;;;;;;;4.77;2.17;;;7.30;90.40;;;;;;5097519;28;20274;-65
2021/03/30 01:02:47;;;;;;;5.63;2.50;;;7.30;90.40;;;;;;5097627;28;20228;-65
2021/03/30 01:05:15;;;;;;;4.90;2.50;;;7.20;90.50;;;;;;5096650;28;20214;-66
2021/03/30 01:07:55;;;;;;;5.53;2.90;;;7.20;90.50;;;;;;5095760;28;20250;-65
2021/03/30 01:10:34;;;;;;;5.43;2.77;;;7.20;90.50;;;;;;5095214;28;20200;-65
2021/03/30 01:13:10;;;;;;;5.90;3.37;;;8.10;91.00;;;;;;5095289;28;20582;-65
2021/03/30 01:15:44;;;;;;;5.43;2.70;;;7.90;91.20;;;;;;5094914;28;20215;-67
2021/03/30 01:18:18;;;;;;;6.37;3.20;;;7.10;90.90;;;;;;5095010;28;20246;-66
2021/03/30 01:21:17;;;;;;;4.27;3.03;;;7.40;90.90;;;;;;5095284;28;20222;-66
2021/03/30 01:24:12;;;;;;;5.00;3.27;;;7.20;90.60;;;;;;5094694;28;20220;-66
2021/03/30 01:26:50;;;;;;;5.23;3.43;;;7.30;90.60;;;;;;5094833;28;20687;-65
2021/03/30 01:29:47;;;;;;;7.00;2.80;;;7.30;90.60;;;;;;5094416;28;20612;-65
2021/03/30 01:32:28;;;;;;;8.53;2.90;;;7.30;90.70;;;;;;5094706;28;20224;-66
2021/03/30 01:34:58;;;;;;;5.27;2.77;;;7.20;90.70;;;;;;5094777;28;20265;-66
2021/03/30 01:37:24;;;;;;;5.33;2.60;;;7.40;90.90;;;;;;5094406;28;20554;-65
2021/03/30 01:39:54;;;;;;;4.80;2.70;;;7.20;91.00;;;;;;5094279;28;20660;-65
2021/03/30 01:42:24;;;;;;;6.63;2.97;;;7.10;91.10;;;;;;5094549;28;20228;-66
2021/03/30 01:44:52;;;;;;;5.90;2.50;;;7.10;91.10;;;;;;5094359;28;20204;-66
2021/03/30 01:47:19;;;;;;;4.53;2.53;;;7.00;91.20;;;;;;5094074;28;20449;-66
2021/03/30 01:49:47;;;;;;;5.10;2.77;;;7.00;91.30;;;;;;5093700;28;20231;-65
2021/03/30 01:52:16;;;;;;;5.30;2.77;;;6.90;91.40;;;;;;5094227;28;20235;-66
2021/03/30 01:54:43;;;;;;;4.93;2.80;;;6.90;91.40;;;;;;5094556;28;20556;-65
2021/03/30 01:57:11;;;;;;;5.37;2.60;;;7.00;91.40;;;;;;5095570;28;20208;-66
2021/03/30 01:59:41;;;;;;;4.83;2.57;;;7.00;91.40;;;;;;5096081;28;20208;-66
2021/03/30 02:02:09;;;;;;;5.90;2.10;;;6.90;91.40;;;;;;5095800;28;20231;-65
2021/03/30 02:04:37;;;;;;;4.37;2.70;;;6.90;91.40;;;;;;5094941;28;20211;-66
2021/03/30 02:07:05;;;;;;;4.17;2.53;;;7.00;91.30;;;;;;5095476;28;20204;-66
2021/03/30 02:09:36;;;;;;;5.07;3.13;;;7.00;91.20;;;;;;5095309;28;20234;-66
2021/03/30 02:12:08;;;;;;;4.83;3.00;;;7.00;91.10;;;;;;5095483;28;20494;-65
2021/03/30 02:14:34;;;;;;;5.00;2.93;;;7.10;91.10;;;;;;5095620;28;20208;-66
2021/03/30 02:17:03;;;;;;;4.43;2.70;;;7.10;91.00;;;;;;5095318;28;20200;-66
2021/03/30 02:19:38;;;;;;;5.53;3.00;;;7.10;91.00;;;;;;5096355;28;20196;-66
2021/03/30 02:22:08;;;;;;;4.60;2.40;;;7.20;91.20;;;;;;5096701;28;20204;-66
2021/03/30 02:24:36;;;;;;;3.47;2.50;;;7.10;91.20;;;;;;5097573;28;20208;-66
2021/03/30 02:27:06;;;;;;;6.10;2.40;;;7.10;91.20;;;;;;5099333;28;20212;-66
2021/03/30 02:29:34;;;;;;;6.07;2.50;;;7.10;91.30;;;;;;5099210;28;20341;-66
2021/03/30 02:32:05;;;;;;;6.50;2.27;;;7.00;91.40;;;;;;5100036;28;20220;-66
2021/03/30 02:34:34;;;;;;;8.17;2.77;;;6.90;91.40;;;;;;5080295;28;20234;-64
2021/03/30 02:37:01;;;;;;;4.10;2.50;;;6.90;91.40;;;;;;5098064;28;20250;-66
2021/03/30 02:39:28;;;;;;;3.50;2.47;;;6.90;91.40;;;;;;5095454;28;20624;-66
2021/03/30 02:41:57;;;;;;;5.20;3.53;;;6.90;91.60;;;;;;5093592;28;20200;-65
2021/03/30 02:44:24;;;;;;;6.10;2.80;;;6.80;91.70;;;;;;5094107;28;20211;-65
2021/03/30 02:46:51;;;;;;;4.53;2.87;;;6.80;91.70;;;;;;5094028;28;20265;-66
2021/03/30 02:49:21;;;;;;;6.60;2.67;;;6.90;91.70;;;;;;5096102;28;20236;-65
2021/03/30 02:51:50;;;;;;;6.23;2.70;;;6.90;91.80;;;;;;5097743;28;20207;-65
2021/03/30 02:54:17;;;;;;;4.70;2.67;;;6.90;91.80;;;;;;5094984;28;20208;-67
2021/03/30 02:56:45;;;;;;;5.67;2.93;;;6.90;91.80;;;;;;5094478;28;20400;-67
2021/03/30 02:59:12;;;;;;;5.13;2.97;;;6.80;91.70;;;;;;5094209;28;20212;-66
2021/03/30 03:01:39;;;;;;;3.97;2.57;;;6.90;91.90;;;;;;5093903;28;20208;-67
2021/03/30 03:04:06;;;;;;;4.23;2.80;;;6.80;91.80;;;;;;5094149;28;20228;-67
2021/03/30 03:06:33;;;;;;;4.40;2.90;;;6.80;91.80;;;;;;5094170;28;20211;-66
2021/03/30 03:09:00;;;;;;;6.73;2.90;;;6.90;91.80;;;;;;5093663;28;20571;-67
2021/03/30 03:11:28;;;;;;;4.47;2.50;;;6.80;92.00;;;;;;5093988;28;20209;-67
2021/03/30 03:13:56;;;;;;;3.40;2.50;;;6.80;92.20;;;;;;5093872;28;20228;-67
2021/03/30 03:16:24;;;;;;;3.67;2.43;;;6.70;92.30;;;;;;5093831;28;20208;-67
2021/03/30 03:18:52;;;;;;;3.80;2.87;;;6.70;92.30;;;;;;5093564;28;20204;-67
2021/03/30 03:21:18;;;;;;;4.43;2.70;;;6.70;92.40;;;;;;5093613;28;20208;-67
2021/03/30 03:23:45;;;;;;;5.47;2.80;;;6.70;92.20;;;;;;5093740;28;20278;-67
2021/03/30 03:26:13;;;;;;;5.50;2.73;;;6.70;92.30;;;;;;5093692;28;20620;-66
2021/03/30 03:28:41;;;;;;;5.93;3.10;;;6.80;92.00;;;;;;5093490;28;20224;-67
2021/03/30 03:31:07;;;;;;;4.90;2.90;;;6.80;92.10;;;;;;5093500;28;20208;-66
2021/03/30 03:33:33;;;;;;;4.23;2.60;;;6.80;92.10;;;;;;5093562;28;20228;-67
2021/03/30 03:36:04;;;;;;;8.67;3.00;;;6.80;92.10;;;;;;5093446;28;20613;-67
2021/03/30 03:38:31;;;;;;;5.53;3.03;;;6.70;92.40;;;;;;5093465;28;20204;-67
2021/03/30 03:40:57;;;;;;;6.97;3.07;;;6.70;92.50;;;;;;5093434;28;20204;-67
2021/03/30 03:43:24;;;;;;;7.13;2.97;;;6.60;92.70;;;;;;5093377;28;20708;-67
2021/03/30 03:45:50;;;;;;;6.40;2.80;;;6.40;93.00;;;;;;5093561;28;20207;-67
2021/03/30 03:48:16;;;;;;;4.30;2.70;;;6.30;93.30;;;;;;5093197;28;20200;-67
2021/03/30 03:50:44;;;;;;;7.73;2.97;;;6.20;93.50;;;;;;5093172;28;20220;-68
2021/03/30 03:53:12;;;;;;;5.67;2.70;;;6.30;93.50;;;;;;5093207;28;20239;-66
2021/03/30 03:55:40;;;;;;;7.33;3.30;;;6.30;93.60;;;;;;5093261;28;20209;-66
2021/03/30 03:58:09;;;;;;;4.30;2.60;;;6.30;93.50;;;;;;5093015;28;20204;-67
2021/03/30 04:00:37;;;;;;;4.07;2.80;;;6.30;93.60;;;;;;5092838;28;20204;-66
2021/03/30 04:03:08;;;;;;;4.27;2.80;;;6.20;93.70;;;;;;5093063;28;20220;-68
2021/03/30 04:05:36;;;;;;;6.17;2.87;;;6.30;93.80;;;;;;5092581;28;20660;-67
2021/03/30 04:08:08;;;;;;;6.87;3.33;;;6.30;93.70;;;;;;5092927;28;20632;-66
2021/03/30 04:10:35;;;;;;;5.80;2.63;;;6.30;93.70;;;;;;5092755;28;20234;-66
2021/03/30 04:13:04;;;;;;;7.23;3.00;;;6.40;93.60;;;;;;5092803;28;20228;-66
2021/03/30 04:15:30;;;;;;;4.83;2.73;;;6.40;93.90;;;;;;5092735;28;20211;-66
2021/03/30 04:17:57;;;;;;;7.17;3.33;;;6.40;93.90;;;;;;5092735;28;20246;-66
2021/03/30 04:20:25;;;;;;;7.47;2.93;;;6.40;93.90;;;;;;5092489;28;20196;-66
2021/03/30 04:22:54;;;;;;;5.13;2.80;;;6.40;94.00;;;;;;5092674;28;20231;-67
2021/03/30 04:25:21;;;;;;;6.60;3.07;;;6.40;94.00;;;;;;5092688;28;20212;-65
2021/03/30 04:27:47;;;;;;;5.23;3.10;;;6.40;94.00;;;;;;5092316;28;20728;-66
2021/03/30 04:30:14;;;;;;;6.53;3.10;;;6.30;94.00;;;;;;5092168;28;20585;-65
2021/03/30 04:32:41;;;;;;;5.77;3.20;;;6.40;94.30;;;;;;5092533;28;20231;-65
2021/03/30 04:35:09;;;;;;;4.27;3.23;;;6.40;94.00;;;;;;5092300;28;20289;-66
2021/03/30 04:37:36;;;;;;;5.77;3.70;;;6.40;94.00;;;;;;5092163;28;20216;-66
2021/03/30 04:40:02;;;;;;;5.90;4.07;;;6.40;93.90;;;;;;5092117;28;20200;-65
2021/03/30 04:42:28;;;;;;;4.93;3.57;;;6.40;93.90;;;;;;5092054;28;20227;-65
2021/03/30 04:44:55;;;;;;;8.63;3.63;;;6.40;93.90;;;;;;5092240;28;20262;-65
2021/03/30 04:47:21;;;;;;;9.23;4.33;;;6.40;94.00;;;;;;5093037;28;20578;-67
2021/03/30 04:49:48;;;;;;;10.07;4.07;;;6.30;94.00;;;;;;5092366;28;20242;-66
2021/03/30 04:52:15;;;;;;;9.87;4.13;;;6.30;94.00;;;;;;5092449;28;20760;-66
2021/03/30 04:54:41;;;;;;;9.17;3.70;;;6.30;94.00;;;;;;5092805;28;20208;-66
2021/03/30 04:57:08;;;;;;;5.93;3.70;;;6.30;94.00;;;;;;5092363;28;20204;-66
2021/03/30 04:59:35;;;;;;;7.77;4.30;;;6.30;93.90;;;;;;5091873;28;20204;-66
2021/03/30 05:02:01;;;;;;;8.77;4.30;;;6.30;93.90;;;;;;5091884;28;20736;-65
2021/03/30 05:04:27;;;;;;;7.63;3.90;;;6.30;94.10;;;;;;5093180;28;20216;-65
2021/03/30 05:06:54;;;;;;;9.40;6.00;;;6.20;94.30;;;;;;5092824;28;20211;-68
2021/03/30 05:09:21;;;;;;;17.87;7.97;;;6.20;94.50;;;;;;5092460;28;20243;-68
2021/03/30 05:11:47;;;;;;;19.30;9.77;;;6.20;94.50;;;;;;5091321;28;20303;-65
2021/03/30 05:14:13;;;;;;;10.57;7.37;;;6.20;94.50;;;;;;5091287;28;20328;-66
2021/03/30 05:16:40;;;;;;;14.37;7.77;;;6.30;94.40;;;;;;5091534;28;20200;-66
2021/03/30 05:19:06;;;;;;;14.23;6.73;;;6.30;94.30;;;;;;5092155;28;20401;-66
2021/03/30 05:21:32;;;;;;;7.60;4.20;;;6.40;94.10;;;;;;5091721;28;20215;-67
2021/03/30 05:23:58;;;;;;;8.10;4.10;;;6.50;94.20;;;;;;5091591;28;20228;-68
2021/03/30 05:26:25;;;;;;;10.33;4.40;;;6.50;94.10;;;;;;5091378;28;20675;-68
2021/03/30 05:28:51;;;;;;;8.43;4.60;;;6.50;94.00;;;;;;5091197;28;20293;-66
2021/03/30 05:31:18;;;;;;;8.03;4.43;;;6.60;94.10;;;;;;5091782;28;20200;-66
2021/03/30 05:33:44;;;;;;;5.93;4.10;;;6.60;94.10;;;;;;5091797;28;20273;-66
2021/03/30 05:36:10;;;;;;;10.90;5.67;;;6.60;94.20;;;;;;5091273;28;20586;-66
2021/03/30 05:38:36;;;;;;;8.33;4.67;;;6.70;94.20;;;;;;5091407;28;20200;-67
2021/03/30 05:41:05;;;;;;;9.77;5.17;;;6.70;94.20;;;;;;5091472;28;20558;-66
2021/03/30 05:43:32;;;;;;;13.77;4.43;;;6.70;94.20;;;;;;5091484;28;20319;-66
2021/03/30 05:45:59;;;;;;;14.20;5.90;;;6.80;94.10;;;;;;5091133;28;20588;-66
2021/03/30 05:48:25;;;;;;;11.67;4.63;;;6.80;94.10;;;;;;5091171;28;20208;-67
2021/03/30 05:50:52;;;;;;;10.70;4.60;;;7.00;94.00;;;;;;5091245;28;20200;-66
2021/03/30 05:53:19;;;;;;;9.10;4.00;;;7.00;93.80;;;;;;5090695;28;20715;-66
2021/03/30 05:55:48;;;;;;;11.90;4.10;;;7.00;93.90;;;;;;5090731;28;20204;-66
2021/03/30 05:58:17;;;;;;;9.93;4.03;;;7.00;94.10;;;;;;5091672;28;20302;-65
2021/03/30 06:00:46;;;;;;;11.03;4.00;;;7.00;94.20;;;;;;5091255;28;20196;-65
2021/03/30 06:03:14;;;;;;;11.43;3.77;;;7.00;94.20;;;;;;5090950;28;20224;-67
2021/03/30 06:05:42;;;;;;;9.83;4.17;;;7.60;94.10;;;;;;5091007;28;20204;-66
2021/03/30 06:08:08;;;;;;;8.17;3.60;;;8.90;92.80;;;;;;5091044;28;20479;-65
2021/03/30 06:10:36;;;;;;;8.13;3.40;;;10.70;89.60;;;;;;5091194;28;20482;-65
2021/03/30 06:13:04;;;;;;;7.27;3.00;;;12.10;85.90;;;;;;5091225;28;20220;-66
2021/03/30 06:15:32;;;;;;;10.83;5.63;;;13.10;81.20;;;;;;5090813;28;20608;-67
2021/03/30 06:18:00;;;;;;;7.57;4.30;;;14.40;78.30;;;;;;5091123;28;20717;-67
2021/03/30 06:20:29;;;;;;;12.30;6.50;;;15.70;72.70;;;;;;5091320;28;20201;-67
2021/03/30 06:22:58;;;;;;;9.40;4.03;;;16.90;68.10;;;;;;5091317;28;20399;-68
2021/03/30 06:25:42;;;;;;;12.03;6.33;;;17.90;66.00;;;;;;5095695;28;20258;-67
2021/03/30 06:28:15;;;;;;;7.33;3.70;;;18.90;62.30;;;;;;5096055;28;20204;-68
2021/03/30 06:30:56;;;;;;;8.45;3.45;;;19.70;59.40;;;;;;5095576;28;20764;-68
2021/03/30 06:33:24;;;;;;;7.75;3.88;;;20.50;58.30;;;;;;5095422;28;20235;-65
2021/03/30 06:35:50;;;;;;;10.40;4.90;;;21.40;56.70;;;;;;5095462;28;20223;-65
2021/03/30 06:38:17;;;;;;;8.15;5.43;;;21.90;54.50;;;;;;5095253;28;20200;-65
2021/03/30 06:40:46;;;;;;;13.95;6.78;;;22.30;54.00;;;;;;5094634;28;20576;-65
2021/03/30 06:46:05;;;;;;;13.85;8.43;;;23.10;51.60;;;;;;5094710;28;20613;-64
2021/03/30 06:48:32;;;;;;;14.88;7.97;;;23.80;50.80;;;;;;5094166;28;20691;-64
2021/03/30 06:51:17;;;;;;;13.52;7.22;;;24.10;49.80;;;;;;5094231;28;20703;-64
2021/03/30 06:53:43;;;;;;;14.20;8.43;;;24.60;48.70;;;;;;5093957;28;20232;-64
2021/03/30 06:56:10;;;;;;;10.90;5.90;;;25.20;47.70;;;;;;5093993;28;20204;-65
2021/03/30 06:58:57;;;;;;;8.85;6.00;;;25.70;47.00;;;;;;5094242;28;20200;-65
2021/03/30 07:01:25;;;;;;;12.90;4.95;;;26.10;46.60;;;;;;5094308;28;20204;-65
2021/03/30 07:03:54;;;;;;;12.52;5.65;;;26.60;45.50;;;;;;5093823;28;20228;-65
2021/03/30 07:06:21;;;;;;;12.43;5.18;;;26.90;44.60;;;;;;5093584;28;20675;-64
2021/03/30 07:08:48;;;;;;;14.25;4.95;;;27.10;45.00;;;;;;5093515;28;20208;-64
2021/03/30 07:11:16;;;;;;;10.68;4.78;;;27.50;44.50;;;;;;5094009;28;20249;-65
2021/03/30 07:13:42;;;;;;;10.43;5.00;;;28.10;43.20;;;;;;5093632;28;20228;-64
2021/03/30 07:16:14;;;;;;;11.02;4.47;;;28.70;42.20;;;;;;5093808;28;20208;-64
2021/03/30 07:18:42;;;;;;;9.38;3.90;;;28.90;41.30;;;;;;5093684;28;20204;-65
2021/03/30 07:21:16;;;;;;;8.05;3.38;;;29.30;41.00;;;;;;5094158;28;20295;-65
2021/03/30 07:23:56;;;;;;;11.57;3.75;;;29.70;39.60;;;;;;5097337;28;20223;-64
2021/03/30 07:26:27;;;;;;;11.85;3.13;;;29.90;39.50;;;;;;5098045;28;20258;-65
2021/03/30 07:28:58;;;;;;;8.73;3.20;;;29.90;38.40;;;;;;5096052;28;20234;-65
2021/03/30 07:31:29;;;;;;;9.15;3.42;;;29.90;37.90;;;;;;5096187;28;20650;-64
2021/03/30 07:34:00;;;;;;;10.57;3.60;;;29.90;37.90;;;;;;5094817;28;20247;-65
2021/03/30 07:36:40;;;;;;;7.50;3.13;;;30.00;37.30;;;;;;5094834;28;20204;-65
2021/03/30 07:39:08;;;;;;;7.05;3.45;;;30.10;37.40;;;;;;5094594;28;20690;-64
2021/03/30 07:41:35;;;;;;;9.45;3.17;;;30.10;36.90;;;;;;5094081;28;20204;-65
2021/03/30 07:44:03;;;;;;;5.50;2.90;;;30.20;37.00;;;;;;5093510;28;20319;-65
2021/03/30 07:46:30;;;;;;;4.35;2.95;;;30.50;36.00;;;;;;5093983;28;20215;-64
2021/03/30 07:48:58;;;;;;;7.28;3.00;;;30.70;36.10;;;;;;5093491;28;20246;-64
2021/03/30 07:51:34;;;;;;;6.15;2.85;;;30.90;35.50;;;;;;5093360;28;20614;-65
2021/03/30 07:54:08;;;;;;;5.40;2.83;;;31.20;34.90;;;;;;5092969;28;20318;-64
2021/03/30 07:56:54;;;;;;;16.27;4.25;;;31.20;35.20;;;;;;5093129;28;20203;-65
2021/03/30 07:59:44;;;;;;;23.55;4.20;;;31.40;36.30;;;;;;5093187;28;20237;-65
2021/03/30 08:02:12;;;;;;;15.73;3.90;;;30.50;37.80;;;;;;5093251;28;20227;-65
2021/03/30 08:04:38;;;;;;;17.65;4.93;;;30.10;38.50;;;;;;5092940;28;20204;-64
2021/03/30 08:07:05;;;;;;;13.77;4.20;;;29.50;39.70;;;;;;5093233;28;20223;-65
2021/03/30 08:09:31;;;;;;;11.88;3.83;;;28.30;41.10;;;;;;5092973;28;20704;-65
2021/03/30 08:11:58;;;;;;;12.32;3.60;;;27.10;42.60;;;;;;5092832;28;20204;-65
2021/03/30 08:14:39;;;;;;;17.05;4.45;;;25.80;44.00;;;;;;5092916;28;20253;-66
2021/03/30 08:17:08;;;;;;;34.08;5.80;;;24.50;44.70;;;;;;5092874;28;20312;-65
2021/03/30 08:19:34;;;;;;;13.90;4.28;;;23.50;46.10;;;;;;5092228;28;20204;-65
2021/03/30 08:22:03;;;;;;;11.95;4.15;;;22.50;47.90;;;;;;5093242;28;20208;-66
2021/03/30 08:24:57;;;;;;;10.25;3.85;;;21.70;49.20;;;;;;5093429;28;20211;-66
2021/03/30 08:27:38;;;;;;;9.75;3.72;;;20.80;50.70;;;;;;5092940;28;20211;-64
2021/03/30 08:30:06;;;;;;;8.52;4.00;;;20.20;51.70;;;;;;5092703;28;20707;-64
2021/03/30 08:32:34;;;;;;;5.22;3.35;;;19.70;51.70;;;;;;5093036;28;20614;-64
2021/03/30 08:35:10;;;;;;;8.85;3.40;;;19.00;53.10;;;;;;5092670;28;20207;-65
2021/03/30 08:37:40;;;;;;;10.43;3.90;;;18.60;53.50;;;;;;5092552;28;20240;-64
2021/03/30 08:40:42;;;;;;;9.97;4.43;;;18.40;53.90;;;;;;5092741;28;20207;-64
2021/03/30 08:43:22;;;;;;;16.00;10.80;;;18.30;54.10;;;;;;5092990;28;20226;-65
2021/03/30 08:46:03;;;;;;;8.67;3.50;;;18.10;54.20;;;;;;5092247;28;20235;-65
2021/03/30 08:48:35;;;;;;;11.57;3.73;;;18.00;54.60;;;;;;5092428;28;20212;-64
2021/03/30 08:51:02;;;;;;;6.77;3.30;;;17.80;55.50;;;;;;5093365;28;20220;-64
2021/03/30 08:53:31;;;;;;;7.72;3.67;;;17.60;56.20;;;;;;5128036;22;20235;-58
2021/03/30 08:56:00;;;;;;;13.52;4.00;;;17.50;57.00;;;;;;5115437;28;20203;-59
2021/03/30 08:58:27;;;;;;;10.90;3.67;;;17.30;57.60;;;;;;5113709;28;20332;-60
2021/03/30 09:00:55;;;;;;;11.50;4.07;;;17.40;57.40;;;;;;5112838;28;20215;-59
2021/03/30 09:03:26;;;;;;;7.47;3.33;;;17.60;57.50;;;;;;5112352;28;20276;-59
2021/03/30 09:05:53;;;;;;;12.77;4.03;;;17.70;57.70;;;;;;5113464;28;20200;-58
2021/03/30 09:08:35;;;;;;;10.87;3.43;;;17.70;58.30;;;;;;5113140;28;20207;-58
2021/03/30 09:11:23;;;;;;;7.33;3.90;;;17.70;58.20;;;;;;5112734;28;20229;-59
2021/03/30 09:14:04;;;;;;;5.67;3.23;;;17.70;56.40;;;;;;5113407;28;20656;-60
2021/03/30 09:16:32;;;;;;;5.97;3.57;;;17.90;56.20;;;;;;5113715;28;20203;-58
2021/03/30 09:19:16;;;;;;;7.60;3.47;;;18.10;55.50;;;;;;5114031;28;20203;-59
2021/03/30 09:21:46;;;;;;;6.68;3.38;;;18.30;55.00;;;;;;5113439;28;20200;-58
2021/03/30 09:24:25;;;;;;;6.45;3.45;;;18.50;55.30;;;;;;5113049;28;20231;-59
2021/03/30 09:26:52;;;;;;;8.85;3.30;;;18.60;55.20;;;;;;5111829;28;20769;-59
2021/03/30 09:29:19;;;;;;;9.63;3.00;;;18.80;54.90;;;;;;5112413;28;20219;-58
2021/03/30 09:31:47;;;;;;;6.05;3.47;;;19.00;54.60;;;;;;5112914;28;20466;-59
2021/03/30 09:34:13;;;;;;;7.40;3.30;;;19.20;54.00;;;;;;5113467;28;20242;-59
2021/03/30 09:36:44;;;;;;;6.53;3.33;;;19.30;53.60;;;;;;5113208;28;20216;-60
2021/03/30 09:39:18;;;;;;;9.55;4.00;;;19.50;53.10;;;;;;5111687;28;20203;-60
2021/03/30 09:41:45;;;;;;;7.68;3.15;;;19.70;52.60;;;;;;5111626;28;20231;-59
2021/03/30 09:44:12;;;;;;;7.72;3.35;;;19.90;52.00;;;;;;5111452;28;20322;-59
2021/03/30 09:46:39;;;;;;;9.40;3.55;;;20.00;51.70;;;;;;5111486;28;20203;-59
2021/03/30 09:49:08;;;;;;;6.35;3.80;;;20.20;51.70;;;;;;5111277;28;20207;-59
2021/03/30 09:51:36;;;;;;;6.05;3.88;;;20.30;50.80;;;;;;5111797;28;20206;-59
2021/03/30 09:54:21;;;;;;;8.57;4.90;;;20.40;50.30;;;;;;5111458;28;20231;-59
2021/03/30 09:56:47;;;;;;;6.07;4.28;;;20.50;50.20;;;;;;5111482;28;20207;-60
2021/03/30 09:59:19;;;;;;;7.05;3.67;;;20.60;50.20;;;;;;5115455;28;20203;-59
2021/03/30 10:01:45;;;;;;;5.80;3.72;;;20.80;50.60;;;;;;5115671;28;20218;-58
2021/03/30 10:04:12;;;;;;;7.40;4.10;;;20.90;50.10;;;;;;5115586;28;20230;-63
2021/03/30 10:06:38;;;;;;;6.43;3.50;;;21.00;50.00;;;;;;5115764;28;20230;-63
2021/03/30 10:09:05;;;;;;;6.63;4.18;;;21.00;50.70;;;;;;5115219;28;20212;-64
2021/03/30 10:11:31;;;;;;;5.75;3.92;;;20.90;52.60;;;;;;5115046;28;20210;-64
2021/03/30 10:14:16;;;;;;;5.72;3.90;;;20.90;52.80;;;;;;5114803;28;20219;-64
2021/03/30 10:16:44;;;;;;;7.50;4.18;;;21.00;52.80;;;;;;5115226;28;20290;-64
2021/03/30 10:19:12;;;;;;;9.15;3.83;;;21.10;52.30;;;;;;5114798;28;20671;-64
2021/03/30 10:21:38;;;;;;;5.43;3.72;;;21.30;51.40;;;;;;5115445;28;20199;-63
2021/03/30 10:24:11;;;;;;;6.20;3.83;;;21.40;51.70;;;;;;5115100;28;20231;-64
2021/03/30 10:26:38;;;;;;;7.15;3.97;;;21.40;50.90;;;;;;5114986;28;20219;-64
2021/03/30 10:29:10;;;;;;;8.60;3.95;;;21.50;50.30;;;;;;5114692;28;20207;-64
2021/03/30 10:31:42;;;;;;;4.03;3.10;;;21.50;48.90;;;;;;5114877;28;20208;-63
2021/03/30 10:34:23;;;;;;;4.50;2.60;;;21.60;46.10;;;;;;5114788;28;20614;-63
2021/03/30 10:36:51;;;;;;;3.83;2.90;;;21.80;45.30;;;;;;5114567;28;20212;-63
2021/03/30 10:39:17;;;;;;;3.00;2.50;;;21.80;43.90;;;;;;5114942;28;20229;-64
2021/03/30 10:41:44;;;;;;;3.42;2.55;;;21.70;43.70;;;;;;5114733;28;20204;-63
2021/03/30 10:44:17;;;;;;;5.68;2.70;;;21.80;43.80;;;;;;5114971;28;20224;-65
2021/03/30 10:46:44;;;;;;;3.55;2.78;;;21.90;43.20;;;;;;5115172;28;20281;-64
2021/03/30 10:49:11;;;;;;;4.68;3.05;;;22.00;42.50;;;;;;5114751;28;20219;-64
2021/03/30 10:51:41;;;;;;;6.03;2.85;;;22.10;42.40;;;;;;5114970;28;20207;-64
2021/03/30 10:54:10;;;;;;;4.50;2.60;;;22.10;41.80;;;;;;5114253;28;20228;-65
2021/03/30 10:56:38;;;;;;;6.07;2.50;;;22.00;41.50;;;;;;5114761;28;20207;-63
2021/03/30 10:59:08;;;;;;;3.88;2.35;;;22.00;41.30;;;;;;5114457;28;20208;-63
2021/03/30 11:01:34;;;;;;;4.00;1.70;;;22.00;40.40;;;;;;5114568;28;20204;-63
2021/03/30 11:04:00;;;;;;;3.42;2.00;;;22.10;40.10;;;;;;5114544;28;20714;-62
2021/03/30 11:06:27;;;;;;;2.75;2.00;;;22.20;40.60;;;;;;5114659;28;20199;-63
2021/03/30 11:08:54;;;;;;;2.58;2.17;;;22.30;39.80;;;;;;5113547;28;20206;-64
2021/03/30 11:11:20;;;;;;;4.60;1.98;;;22.40;39.40;;;;;;5114460;28;20228;-63
2021/03/30 11:13:47;;;;;;;6.75;1.85;;;22.50;38.20;;;;;;5114038;28;20235;-64
2021/03/30 11:16:13;;;;;;;2.80;1.95;;;22.60;38.20;;;;;;5114172;28;20207;-63
2021/03/30 11:18:39;;;;;;;4.75;2.50;;;22.80;39.40;;;;;;5113893;28;20639;-64
2021/03/30 11:21:06;;;;;;;5.75;2.70;;;22.90;39.60;;;;;;5115566;28;20203;-62
2021/03/30 11:23:32;;;;;;;3.58;2.40;;;22.90;39.40;;;;;;5113737;28;20281;-63
2021/03/30 11:25:59;;;;;;;3.20;2.00;;;22.90;39.90;;;;;;5114174;28;20215;-64
2021/03/30 11:28:29;;;;;;;3.40;2.10;;;22.90;39.80;;;;;;5113918;28;20208;-64
2021/03/30 11:31:01;;;;;;;5.35;2.28;;;23.10;38.70;;;;;;5113889;28;20308;-63
2021/03/30 11:33:30;;;;;;;3.80;2.40;;;23.10;37.90;;;;;;5113885;28;20311;-63
2021/03/30 11:35:59;;;;;;;3.30;2.10;;;23.20;37.90;;;;;;5113861;28;20663;-62
2021/03/30 11:38:25;;;;;;;3.58;2.35;;;23.20;38.10;;;;;;5113811;28;20229;-62
2021/03/30 11:40:51;;;;;;;5.03;2.40;;;23.30;37.70;;;;;;5113795;28;20200;-63
2021/03/30 11:43:19;;;;;;;3.58;2.47;;;23.40;38.80;;;;;;5113911;28;20228;-63
2021/03/30 11:45:46;;;;;;;6.00;2.40;;;23.40;38.50;;;;;;5113865;28;20290;-63
2021/03/30 11:48:12;;;;;;;4.00;2.42;;;23.30;37.90;;;;;;5114272;28;20211;-64
2021/03/30 11:50:39;;;;;;;3.92;2.33;;;23.50;37.60;;;;;;5114005;28;20234;-65
2021/03/30 11:53:05;;;;;;;3.28;2.50;;;23.60;37.20;;;;;;5113646;28;20786;-63
2021/03/30 11:55:31;;;;;;;3.85;2.45;;;23.70;37.90;;;;;;5113848;28;20212;-63
2021/03/30 11:57:58;;;;;;;4.32;2.45;;;23.60;37.10;;;;;;5113252;28;20203;-63
2021/03/30 12:00:25;;;;;;;5.47;2.40;;;23.80;37.80;;;;;;5113171;28;20697;-63
2021/03/30 12:02:51;;;;;;;7.10;2.15;;;23.80;37.50;;;;;;5113820;28;20273;-62
2021/03/30 12:05:20;;;;;;;4.00;1.90;;;23.90;36.90;;;;;;5113198;28;20208;-62
2021/03/30 12:07:46;;;;;;;4.22;2.40;;;23.90;36.80;;;;;;5113530;28;20207;-63
2021/03/30 12:10:14;;;;;;;3.80;2.10;;;24.00;36.80;;;;;;5113628;28;20234;-63
2021/03/30 12:12:40;;;;;;;9.27;5.95;;;24.10;36.70;;;;;;5113441;28;20227;-63
2021/03/30 12:15:08;;;;;;;4.18;2.00;;;24.10;37.20;;;;;;5113313;28;20207;-63
2021/03/30 12:17:35;;;;;;;5.50;2.40;;;24.20;36.50;;;;;;5113784;28;20214;-64
2021/03/30 12:20:03;;;;;;;3.45;2.20;;;24.40;35.50;;;;;;5113968;28;20426;-67
2021/03/30 12:22:29;;;;;;;3.45;2.47;;;24.50;35.00;;;;;;5112214;28;20710;-67
2021/03/30 12:24:55;;;;;;;4.00;2.50;;;24.70;36.30;;;;;;5114259;28;20207;-67
2021/03/30 12:27:21;;;;;;;5.43;2.22;;;24.80;37.00;;;;;;5112897;28;20254;-66
2021/03/30 12:29:47;;;;;;;4.63;2.17;;;25.00;38.50;;;;;;5112352;28;20224;-65
2021/03/30 12:32:14;;;;;;;5.38;2.05;;;25.10;37.30;;;;;;5112734;28;20203;-65
2021/03/30 12:34:41;;;;;;;2.65;1.85;;;25.00;35.60;;;;;;5112347;28;20212;-66
2021/03/30 12:37:09;;;;;;;2.88;2.00;;;24.90;34.20;;;;;;5112043;28;20727;-66
2021/03/30 12:39:35;;;;;;;4.65;2.03;;;24.90;33.90;;;;;;5112191;28;20195;-66
2021/03/30 12:42:01;;;;;;;4.43;2.10;;;24.90;33.00;;;;;;5111936;28;20214;-66
2021/03/30 12:44:28;;;;;;;3.33;2.20;;;24.80;32.70;;;;;;5111443;28;20710;-65
2021/03/30 12:46:54;;;;;;;2.83;2.13;;;24.80;32.90;;;;;;5111933;28;20210;-64
2021/03/30 12:49:23;;;;;;;3.95;2.00;;;24.80;34.10;;;;;;5111631;28;20207;-62
2021/03/30 12:51:51;;;;;;;3.28;2.00;;;24.90;34.20;;;;;;5111630;28;20210;-64
2021/03/30 12:54:17;;;;;;;3.75;1.90;;;25.00;31.70;;;;;;5111237;28;20239;-66
2021/03/30 12:56:45;;;;;;;7.80;2.15;;;25.00;30.10;;;;;;5111437;28;20211;-63
2021/03/30 12:59:11;;;;;;;3.95;2.00;;;25.00;29.50;;;;;;5111815;28;20203;-64
2021/03/30 13:01:37;;;;;;;3.83;1.83;;;25.10;29.00;;;;;;5112027;28;20214;-63
2021/03/30 13:04:03;;;;;;;2.45;1.90;;;25.20;29.30;;;;;;5112270;28;20223;-63